Time;durP1;ratioP1;P1;durP2;ratioP2;P2;SDS_P1;SDS_P2;PMS_P1;PMS_P2;Temp;Humidity;BMP_temperature;BMP_pressure;BME280_temperature;BME280_humidity;BME280_pressure;Samples;Min_cycle;Max_cycle;Signal;HPM_P1;HPM_P2
2021/12/24 00:01:27;;;;;;;14.57;7.53;;;5.20;99.90;;;5.71;100.00;97372.44;5045675;28;20508;-78
2021/12/24 00:03:58;;;;;;;12.80;6.73;;;5.20;99.90;;;5.72;100.00;97379.25;5041296;28;21123;-79
2021/12/24 00:06:28;;;;;;;9.53;6.33;;;5.20;99.90;;;5.74;100.00;97370.31;5042896;28;20467;-79
2021/12/24 00:09:01;;;;;;;13.03;6.30;;;5.30;99.90;;;5.77;100.00;97379.53;5046680;28;20472;-78
2021/12/24 00:11:35;;;;;;;10.50;6.70;;;5.30;99.90;;;5.81;100.00;97375.63;5046296;28;20464;-78
2021/12/24 00:14:06;;;;;;;10.90;6.30;;;5.40;99.90;;;5.83;100.00;97384.81;5053443;28;20453;-78
2021/12/24 00:16:41;;;;;;;11.77;6.43;;;5.40;99.90;;;5.87;100.00;97372.34;5039857;28;20492;-78
2021/12/24 00:19:19;;;;;;;9.80;6.90;;;5.40;99.90;;;5.88;100.00;97374.78;5046375;28;20467;-79
2021/12/24 00:35:50;;;;;;;12.03;5.97;;;5.50;99.90;;;6.03;100.00;97361.84;5045352;28;20493;-78
2021/12/24 00:38:20;;;;;;;11.53;5.83;;;5.60;99.90;;;6.07;100.00;97363.13;5044144;28;20472;-78
2021/12/24 00:40:50;;;;;;;15.60;5.90;;;5.70;99.90;;;6.17;100.00;97363.69;5037064;28;20957;-78
2021/12/24 00:43:21;;;;;;;13.03;6.20;;;5.70;99.90;;;6.25;100.00;97365.41;5043878;28;20844;-78
2021/12/24 00:45:51;;;;;;;15.60;6.50;;;5.80;99.90;;;6.30;100.00;97361.28;5035131;28;20496;-80
2021/12/24 00:48:22;;;;;;;11.00;5.80;;;5.80;99.90;;;6.38;100.00;97371.59;5043772;28;20492;-78
2021/12/24 00:51:06;;;;;;;11.47;6.33;;;6.00;99.90;;;6.44;100.00;97359.69;5043081;28;20464;-79
2021/12/24 00:56:24;;;;;;;9.63;6.13;;;6.10;99.90;;;6.47;100.00;97365.31;5051054;28;20698;-78
2021/12/24 00:58:54;;;;;;;15.00;6.60;;;6.10;99.90;;;6.45;100.00;97369.91;5041310;28;20535;-79
2021/12/24 01:01:25;;;;;;;11.63;6.17;;;6.00;99.90;;;6.50;100.00;97370.16;5044440;28;20457;-78
2021/12/24 01:03:55;;;;;;;15.60;7.33;;;6.10;99.90;;;6.49;100.00;97378.94;5043705;28;20497;-78
2021/12/24 01:06:26;;;;;;;12.03;6.90;;;6.10;99.90;;;6.54;100.00;97381.81;5046428;28;20902;-78
2021/12/24 01:08:56;;;;;;;14.73;7.20;;;6.20;99.90;;;6.53;100.00;97380.19;5047329;28;20514;-78
2021/12/24 01:11:27;;;;;;;14.73;7.43;;;6.10;99.90;;;6.53;100.00;97375.00;5044926;28;21166;-78
2021/12/24 01:13:59;;;;;;;11.20;6.47;;;6.10;99.90;;;6.53;100.00;97384.56;5044854;28;20719;-78
2021/12/24 01:16:35;;;;;;;17.90;7.67;;;6.00;99.90;;;6.55;100.00;97386.03;5053417;28;20449;-78
2021/12/24 01:19:10;;;;;;;14.63;6.40;;;6.10;99.90;;;6.56;100.00;97385.03;5040947;28;20460;-78
2021/12/24 01:22:01;;;;;;;10.17;7.07;;;6.20;99.90;;;6.59;100.00;97383.88;5049001;28;20518;-78
2021/12/24 01:24:39;;;;;;;11.20;7.20;;;6.30;99.90;;;6.62;100.00;97388.72;5049151;28;20508;-78
2021/12/24 01:27:20;;;;;;;9.70;6.30;;;6.30;99.90;;;6.62;100.00;97385.31;5043726;28;20535;-78
2021/12/24 01:30:01;;;;;;;11.20;6.73;;;6.20;99.90;;;6.64;100.00;97380.72;5049067;28;20457;-78
2021/12/24 01:38:23;;;;;;;9.63;5.97;;;6.20;99.90;;;6.62;100.00;97374.91;5021334;28;21020;-78
2021/12/24 01:41:06;;;;;;;10.73;7.30;;;6.20;99.90;;;6.63;100.00;97371.34;5020614;28;21070;-78
2021/12/24 01:43:35;;;;;;;9.10;5.93;;;6.20;99.90;;;6.64;100.00;97370.34;5034319;28;21002;-78
2021/12/24 01:46:07;;;;;;;13.77;6.03;;;6.30;99.90;;;6.61;100.00;97368.91;5045900;28;20523;-78
2021/12/24 01:48:38;;;;;;;11.60;6.67;;;6.20;99.90;;;6.63;100.00;97369.53;5046100;28;20484;-78
2021/12/24 01:51:08;;;;;;;10.20;6.20;;;6.20;99.90;;;6.64;100.00;97376.34;5042759;28;20453;-78
2021/12/24 01:53:38;;;;;;;11.50;7.27;;;6.20;99.90;;;6.66;100.00;97371.81;5044978;28;20453;-78
2021/12/24 01:56:08;;;;;;;12.23;6.70;;;6.20;99.90;;;6.67;100.00;97357.00;5047755;28;20540;-78
2021/12/24 01:58:41;;;;;;;10.00;6.90;;;6.30;99.90;;;6.66;100.00;97361.41;5049566;28;20468;-78
2021/12/24 02:01:14;;;;;;;9.23;7.27;;;6.20;99.90;;;6.61;100.00;97350.75;5047164;28;20966;-78
2021/12/24 02:03:43;;;;;;;8.40;6.80;;;6.10;99.90;;;6.64;100.00;97344.38;5046223;28;20480;-79
2021/12/24 02:06:15;;;;;;;12.80;6.67;;;6.10;99.90;;;6.68;100.00;97346.44;5044357;28;20492;-78
2021/12/24 02:08:45;;;;;;;13.00;7.87;;;6.20;99.90;;;6.67;100.00;97339.63;5047892;28;20454;-78
2021/12/24 02:11:16;;;;;;;14.17;7.20;;;6.20;99.90;;;6.69;100.00;97342.06;5041386;28;20827;-78
2021/12/24 02:13:46;;;;;;;11.40;6.43;;;6.20;99.90;;;6.69;100.00;97332.47;5047504;28;20690;-78
2021/12/24 02:16:33;;;;;;;10.50;6.67;;;6.20;99.90;;;6.71;100.00;97329.69;5053957;28;20472;-78
2021/12/24 02:30:19;;;;;;;14.80;8.53;;;6.40;99.90;;;6.77;100.00;97318.59;5041693;28;20462;-78
2021/12/24 02:32:50;;;;;;;11.60;7.03;;;6.40;99.90;;;6.78;100.00;97327.97;5046976;28;20468;-78
2021/12/24 02:35:21;;;;;;;14.47;8.23;;;6.30;99.90;;;6.81;100.00;97335.41;5048108;28;20464;-78
2021/12/24 02:37:54;;;;;;;17.83;7.30;;;6.40;99.90;;;6.82;100.00;97337.03;5048626;28;20874;-78
2021/12/24 02:40:24;;;;;;;12.17;7.20;;;6.40;99.90;;;6.78;100.00;97340.97;5046702;28;20453;-78
2021/12/24 02:42:57;;;;;;;12.87;7.50;;;6.30;99.90;;;6.78;100.00;97336.56;5045805;28;20468;-78
2021/12/24 02:45:33;;;;;;;15.70;8.50;;;6.40;99.90;;;6.77;100.00;97328.97;5039154;28;20498;-78
2021/12/24 02:48:45;;;;;;;16.00;7.13;;;6.30;99.90;;;6.81;100.00;97312.00;5048416;28;20539;-78
2021/12/24 02:53:58;;;;;;;20.67;8.97;;;6.40;99.90;;;6.80;100.00;97308.63;5043224;28;20511;-78
2021/12/24 02:56:32;;;;;;;10.30;7.43;;;6.40;99.90;;;6.81;100.00;97312.81;5042640;28;20993;-78
2021/12/24 02:59:05;;;;;;;12.40;8.97;;;6.30;99.90;;;6.83;100.00;97312.66;5042694;28;20919;-79
2021/12/24 03:01:39;;;;;;;12.97;8.17;;;6.40;99.90;;;6.85;100.00;97315.88;5051092;28;20520;-78
2021/12/24 03:04:11;;;;;;;12.93;7.60;;;6.40;99.90;;;6.82;100.00;97311.03;5045000;28;20915;-78
2021/12/24 03:06:45;;;;;;;12.57;9.17;;;6.40;99.90;;;6.82;100.00;97308.44;5045033;28;20878;-78
2021/12/24 03:09:19;;;;;;;12.97;7.93;;;6.40;99.90;;;6.83;100.00;97300.47;5042211;28;20456;-78
2021/12/24 03:11:52;;;;;;;12.40;8.60;;;6.40;99.90;;;6.85;100.00;97308.06;5047410;28;20522;-78
2021/12/24 03:14:23;;;;;;;16.20;8.90;;;6.40;99.90;;;6.85;100.00;97308.88;5048961;28;20830;-78
2021/12/24 03:16:58;;;;;;;13.10;8.73;;;6.40;99.90;;;6.82;100.00;97298.03;5039172;28;20500;-78
2021/12/24 03:19:31;;;;;;;14.00;9.00;;;6.30;99.90;;;6.83;100.00;97290.09;5047312;28;20530;-78
2021/12/24 03:22:13;;;;;;;14.73;9.07;;;6.30;99.90;;;6.84;100.00;97289.06;5046101;28;21037;-78
2021/12/24 03:24:46;;;;;;;13.87;9.33;;;6.40;99.90;;;6.87;100.00;97290.53;5048700;28;20519;-78
2021/12/24 03:27:16;;;;;;;14.07;9.40;;;6.40;99.90;;;6.88;100.00;97292.13;5041852;28;20957;-78
2021/12/24 03:29:47;;;;;;;13.73;8.90;;;6.50;99.90;;;6.86;100.00;97297.50;5042580;28;20469;-77
2021/12/24 03:32:18;;;;;;;11.23;7.77;;;6.40;99.90;;;6.87;100.00;97299.09;5044480;28;20756;-78
2021/12/24 03:34:49;;;;;;;20.37;9.00;;;6.50;99.90;;;6.89;100.00;97291.13;5039767;28;20480;-78
2021/12/24 03:37:19;;;;;;;20.23;8.80;;;6.50;99.90;;;6.89;100.00;97285.94;5043063;28;20544;-78
2021/12/24 03:39:52;;;;;;;15.30;8.07;;;6.40;99.90;;;6.90;100.00;97282.34;5040897;28;20462;-78
2021/12/24 03:42:23;;;;;;;16.53;9.30;;;6.40;99.90;;;6.89;100.00;97278.94;5045487;28;20461;-78
2021/12/24 03:45:06;;;;;;;15.03;8.93;;;6.40;99.90;;;6.88;100.00;97284.31;5044719;28;20659;-78
2021/12/24 03:47:40;;;;;;;18.63;9.80;;;6.40;99.90;;;6.87;100.00;97287.94;5050626;28;20461;-78
2021/12/24 03:50:12;;;;;;;14.50;8.63;;;6.30;99.90;;;6.87;100.00;97293.13;5037263;28;20469;-78
2021/12/24 03:55:27;;;;;;;16.37;9.27;;;6.40;99.90;;;6.89;100.00;97280.75;5044462;28;20465;-78
2021/12/24 03:58:05;;;;;;;12.10;8.03;;;6.40;99.90;;;6.87;100.00;97280.13;5048023;28;20571;-79
2021/12/24 04:00:36;;;;;;;13.17;7.77;;;6.30;99.90;;;6.86;100.00;97270.72;5043820;28;20832;-78
2021/12/24 04:03:06;;;;;;;19.23;8.73;;;6.30;99.90;;;6.85;100.00;97271.69;5046853;28;20847;-78
2021/12/24 04:05:36;;;;;;;11.50;7.63;;;6.20;99.90;;;6.81;100.00;97275.63;5045858;28;21021;-78
2021/12/24 04:08:07;;;;;;;14.93;7.67;;;6.10;99.90;;;6.79;100.00;97264.63;5040561;28;20537;-78
2021/12/24 04:10:40;;;;;;;12.40;7.73;;;6.20;99.90;;;6.77;100.00;97264.03;5052051;28;20513;-78
2021/12/24 04:13:13;;;;;;;13.37;8.20;;;6.10;99.90;;;6.78;100.00;97268.22;5036707;28;20972;-78
2021/12/24 04:15:43;;;;;;;8.27;6.70;;;6.20;99.90;;;6.79;100.00;97265.44;5044922;28;20496;-78
2021/12/24 04:18:18;;;;;;;12.10;8.80;;;6.20;99.90;;;6.77;100.00;97266.63;5042734;28;20465;-78
2021/12/24 04:26:25;;;;;;;14.20;9.37;;;6.20;99.90;;;6.74;100.00;97267.78;5043490;28;20539;-78
2021/12/24 04:28:55;;;;;;;15.23;8.07;;;6.20;99.90;;;6.76;100.00;97254.63;5041462;28;20549;-78
2021/12/24 04:31:29;;;;;;;11.40;7.73;;;6.20;99.90;;;6.75;100.00;97250.41;5039150;28;20460;-78
2021/12/24 04:34:02;;;;;;;13.37;8.00;;;6.20;99.90;;;6.75;100.00;97253.00;5037485;28;20476;-78
2021/12/24 04:36:47;;;;;;;42.77;21.53;;;6.10;99.90;;;6.71;100.00;97239.56;5041980;28;20885;-78
2021/12/24 04:39:44;;;;;;;21.40;10.40;;;6.10;99.90;;;6.73;100.00;97240.22;5044716;28;20549;-77
2021/12/24 05:02:07;;;;;;;13.77;7.50;;;6.10;99.90;;;6.69;100.00;97251.13;5046827;28;20457;-76
2021/12/24 05:04:47;;;;;;;13.57;8.20;;;6.00;99.90;;;6.69;100.00;97257.13;5052394;28;20445;-76
2021/12/24 05:07:42;;;;;;;10.27;8.27;;;6.10;99.90;;;6.73;100.00;97266.19;5052320;28;20488;-76
2021/12/24 05:10:16;;;;;;;13.80;7.63;;;6.10;99.90;;;6.72;100.00;97276.75;5050212;28;20453;-75
2021/12/24 05:12:46;;;;;;;14.63;7.23;;;6.10;99.90;;;6.72;100.00;97274.16;5052475;28;20795;-75
2021/12/24 05:15:19;;;;;;;11.50;6.83;;;6.20;99.90;;;6.75;100.00;97276.38;5048639;28;20836;-75
2021/12/24 05:18:05;;;;;;;13.10;8.53;;;6.20;99.90;;;6.77;100.00;97274.41;5051724;28;20460;-75
2021/12/24 05:23:22;;;;;;;13.83;8.70;;;6.20;99.90;;;6.80;100.00;97274.88;5047082;28;21023;-76
2021/12/24 05:25:52;;;;;;;11.53;7.70;;;6.30;99.90;;;6.80;100.00;97266.25;5045639;28;20488;-76
2021/12/24 05:28:23;;;;;;;17.03;7.90;;;6.30;99.90;;;6.80;100.00;97269.66;5048518;28;20536;-76
2021/12/24 05:30:55;;;;;;;15.73;10.33;;;6.30;99.90;;;6.83;100.00;97269.28;5052084;28;20468;-76
2021/12/24 05:33:25;;;;;;;13.00;7.90;;;6.30;99.90;;;6.84;100.00;97259.69;5044020;28;20457;-76
2021/12/24 05:35:57;;;;;;;17.47;7.87;;;6.30;99.90;;;6.84;100.00;97252.69;5053446;28;20445;-76
2021/12/24 05:38:27;;;;;;;13.90;8.33;;;6.30;99.90;;;6.83;100.00;97265.88;5048286;28;20485;-76
2021/12/24 05:40:57;;;;;;;12.17;7.47;;;6.20;99.90;;;6.84;100.00;97257.09;5049389;28;20453;-76
2021/12/24 05:43:26;;;;;;;11.57;7.20;;;6.30;99.90;;;6.83;100.00;97245.91;5053111;28;21021;-76
2021/12/24 05:45:58;;;;;;;9.97;7.40;;;6.20;99.90;;;6.83;100.00;97264.09;5053155;28;20452;-76
2021/12/24 05:48:28;;;;;;;17.07;7.13;;;6.20;99.90;;;6.85;100.00;97256.91;5054891;28;20499;-76
2021/12/24 05:50:58;;;;;;;9.60;6.97;;;6.30;99.90;;;6.87;100.00;97269.75;5045460;28;20504;-76
2021/12/24 05:53:27;;;;;;;9.60;7.60;;;6.20;99.90;;;6.89;100.00;97260.75;5053031;28;20491;-76
2021/12/24 05:55:58;;;;;;;12.33;7.13;;;6.30;99.90;;;6.91;100.00;97257.97;5055492;28;20445;-76
2021/12/24 05:58:28;;;;;;;11.50;6.60;;;6.40;99.90;;;6.93;100.00;97261.19;5049464;28;20507;-76
2021/12/24 06:01:00;;;;;;;13.30;6.80;;;6.40;99.90;;;6.92;100.00;97263.00;5052708;28;20534;-76
2021/12/24 06:03:30;;;;;;;12.93;6.40;;;6.40;99.90;;;6.92;100.00;97260.38;5044742;28;20457;-76
2021/12/24 06:05:59;;;;;;;8.67;6.30;;;6.40;99.90;;;6.93;100.00;97261.19;5048593;28;20861;-76
2021/12/24 06:08:30;;;;;;;10.80;5.93;;;6.30;99.90;;;6.95;100.00;97274.81;5046611;28;20591;-76
2021/12/24 06:11:00;;;;;;;8.73;6.63;;;6.40;99.90;;;6.97;100.00;97275.44;5052667;28;20824;-76
2021/12/24 06:13:32;;;;;;;7.97;5.77;;;6.50;99.90;;;6.96;100.00;97290.22;5054365;28;20867;-76
2021/12/24 06:16:10;;;;;;;8.00;6.27;;;6.40;99.90;;;6.95;100.00;97299.00;5051191;28;20465;-76
2021/12/24 06:18:42;;;;;;;8.73;5.90;;;6.40;99.90;;;6.93;100.00;97292.38;5046823;28;20480;-76
2021/12/24 06:21:12;;;;;;;8.13;5.13;;;6.30;99.90;;;6.91;100.00;97299.53;5048117;28;20441;-76
2021/12/24 06:23:51;;;;;;;7.20;5.57;;;6.30;99.90;;;6.86;100.00;97296.69;5054606;28;20445;-76
2021/12/24 06:26:20;;;;;;;6.87;5.43;;;6.30;99.90;;;6.86;100.00;97291.50;5052089;28;20449;-76
2021/12/24 06:28:51;;;;;;;8.37;5.90;;;6.20;99.90;;;6.85;100.00;97284.69;5052401;28;20463;-76
2021/12/24 06:31:26;;;;;;;8.70;4.93;;;6.20;99.90;;;6.87;100.00;97285.31;5052200;28;20452;-76
2021/12/24 06:34:00;;;;;;;7.50;5.17;;;6.20;99.90;;;6.90;100.00;97300.56;5044755;28;20822;-76
2021/12/24 06:36:33;;;;;;;8.30;4.93;;;6.30;99.90;;;6.89;100.00;97307.53;5052055;28;20536;-76
2021/12/24 06:39:09;;;;;;;7.90;4.90;;;6.30;99.90;;;6.90;100.00;97305.75;5049565;28;20765;-76
2021/12/24 06:41:55;;;;;;;10.50;5.03;;;6.30;99.90;;;6.91;100.00;97308.16;5050195;28;20552;-76
2021/12/24 06:44:29;;;;;;;5.90;4.40;;;6.40;99.90;;;6.92;100.00;97301.16;5045658;28;20484;-76
2021/12/24 06:47:00;;;;;;;6.77;5.00;;;6.40;99.90;;;6.97;100.00;97298.84;5057032;28;20496;-76
2021/12/24 06:49:32;;;;;;;7.20;5.07;;;6.40;99.90;;;6.98;100.00;97300.44;5056813;28;20519;-76
2021/12/24 06:52:02;;;;;;;5.50;4.30;;;6.40;99.90;;;7.00;100.00;97293.28;5049894;28;20457;-76
2021/12/24 06:54:35;;;;;;;5.70;4.40;;;6.40;99.90;;;7.00;100.00;97286.28;5061640;28;20940;-76
2021/12/24 06:57:12;;;;;;;5.20;4.40;;;6.40;99.90;;;6.99;100.00;97291.66;5051901;28;20517;-76
2021/12/24 06:59:45;;;;;;;8.50;4.57;;;6.40;99.90;;;6.97;100.00;97291.03;5041365;28;20469;-76
2021/12/24 07:02:18;;;;;;;7.83;4.70;;;6.40;99.90;;;7.00;100.00;97277.69;5049554;28;20444;-76
2021/12/24 07:05:13;;;;;;;8.03;5.07;;;6.40;99.90;;;6.99;100.00;97282.06;5051767;28;20456;-76
2021/12/24 07:07:43;;;;;;;6.10;4.07;;;6.40;99.90;;;7.00;100.00;97280.28;5046776;28;20499;-76
2021/12/24 07:10:16;;;;;;;7.17;5.10;;;6.40;99.90;;;7.01;100.00;97284.50;5048581;28;20460;-76
2021/12/24 07:12:46;;;;;;;6.10;4.20;;;6.40;99.90;;;6.99;100.00;97282.06;5044390;28;20469;-76
2021/12/24 07:15:22;;;;;;;6.33;4.70;;;6.40;99.90;;;6.98;100.00;97270.03;5054847;28;20455;-76
2021/12/24 07:17:54;;;;;;;7.20;4.53;;;6.40;99.90;;;6.96;100.00;97269.44;5051156;28;20483;-76
2021/12/24 07:20:23;;;;;;;7.00;4.70;;;6.30;99.90;;;6.97;100.00;97275.44;5050302;28;20457;-76
2021/12/24 07:22:53;;;;;;;7.37;4.80;;;6.30;99.90;;;6.95;100.00;97280.81;5050585;28;20845;-76
2021/12/24 07:25:23;;;;;;;7.00;4.57;;;6.30;99.90;;;6.97;100.00;97278.03;5053771;28;20936;-77
2021/12/24 07:27:54;;;;;;;7.73;4.90;;;6.30;99.90;;;6.97;100.00;97272.84;5041493;28;20836;-76
2021/12/24 07:30:24;;;;;;;6.47;4.37;;;6.30;99.90;;;6.98;100.00;97275.25;5053349;28;20486;-77
2021/12/24 07:32:55;;;;;;;5.63;4.20;;;6.30;99.90;;;6.99;100.00;97279.47;5049920;28;20453;-76
2021/12/24 07:35:26;;;;;;;7.33;4.00;;;6.30;99.90;;;6.99;100.00;97271.66;5049616;28;20693;-76
2021/12/24 07:37:56;;;;;;;7.33;4.10;;;6.30;99.90;;;6.97;100.00;97259.84;5050054;28;20518;-77
2021/12/24 07:40:27;;;;;;;7.00;4.83;;;6.30;99.90;;;6.97;100.00;97267.66;5040513;28;20510;-76
2021/12/24 07:42:56;;;;;;;7.13;4.27;;;6.30;99.90;;;6.88;100.00;97261.75;5050333;28;20452;-77
2021/12/24 07:45:26;;;;;;;7.10;4.10;;;6.20;99.90;;;6.87;100.00;97262.72;5050268;28;20818;-77
2021/12/24 07:48:10;;;;;;;4.33;3.67;;;6.20;99.90;;;6.83;100.00;97269.28;5049372;28;20515;-76
2021/12/24 07:53:31;;;;;;;5.93;3.90;;;6.00;99.90;;;6.79;100.00;97281.03;5049801;28;20457;-76
2021/12/24 07:56:01;;;;;;;7.80;4.90;;;6.10;99.90;;;6.76;100.00;97281.41;5049873;28;20558;-76
2021/12/24 07:58:31;;;;;;;5.27;4.53;;;6.10;99.90;;;6.80;100.00;97287.03;5049778;28;20564;-77
2021/12/24 08:01:02;;;;;;;7.63;4.03;;;6.20;99.90;;;6.75;100.00;97290.19;5010137;28;20475;-77
2021/12/24 08:03:34;;;;;;;5.97;4.33;;;6.10;99.90;;;6.75;100.00;97299.75;5004555;28;20574;-76
2021/12/24 08:06:06;;;;;;;7.13;4.33;;;6.10;99.90;;;6.78;100.00;97289.00;5012473;28;20462;-76
2021/12/24 08:08:58;;;;;;;8.50;4.53;;;6.20;99.90;;;6.80;100.00;97292.25;5003466;28;20548;-76
2021/12/24 08:11:28;;;;;;;5.33;4.30;;;6.20;99.90;;;6.82;100.00;97290.25;5008492;28;20447;-76
2021/12/24 08:14:01;;;;;;;8.10;5.50;;;6.20;99.90;;;6.83;100.00;97291.88;5003822;28;20947;-76
2021/12/24 08:16:31;;;;;;;7.40;5.07;;;6.20;99.90;;;6.87;100.00;97285.31;5009662;28;20455;-76
2021/12/24 08:19:03;;;;;;;9.90;5.30;;;6.30;99.90;;;6.88;100.00;97266.13;5010334;28;20455;-76
2021/12/24 08:21:35;;;;;;;10.90;4.70;;;6.20;99.90;;;6.90;100.00;97264.16;5010580;28;20447;-76
2021/12/24 08:24:05;;;;;;;11.23;5.70;;;6.30;99.90;;;6.95;100.00;97265.22;5009360;28;20454;-77
2021/12/24 08:26:35;;;;;;;11.93;5.60;;;6.40;99.90;;;6.97;100.00;97271.06;5007560;28;20462;-76
2021/12/24 08:29:06;;;;;;;8.60;5.00;;;6.40;99.90;;;6.97;100.00;97265.06;5017754;28;21011;-76
2021/12/24 08:31:37;;;;;;;10.50;5.13;;;6.30;99.90;;;6.99;100.00;97260.47;5013849;28;20442;-76
2021/12/24 08:34:08;;;;;;;8.30;4.50;;;6.40;99.90;;;7.01;100.00;97245.50;5013668;28;20797;-77
2021/12/24 08:36:41;;;;;;;9.63;5.30;;;6.40;99.90;;;7.02;100.00;97239.31;5014406;28;20443;-76
2021/12/24 08:39:10;;;;;;;6.57;5.37;;;6.40;99.90;;;7.03;100.00;97240.91;5009215;28;21017;-77
2021/12/24 08:41:40;;;;;;;8.33;6.17;;;6.40;99.90;;;7.06;100.00;97237.94;5013075;28;20882;-77
2021/12/24 08:44:11;;;;;;;11.37;6.17;;;6.40;99.90;;;7.07;100.00;97231.75;5013723;28;20891;-76
2021/12/24 08:46:42;;;;;;;7.70;5.20;;;6.40;99.90;;;7.13;100.00;97231.03;5014290;28;20920;-76
2021/12/24 08:49:13;;;;;;;10.37;5.33;;;6.60;99.90;;;7.16;100.00;97240.22;5019787;28;20560;-77
2021/12/24 08:51:42;;;;;;;9.13;4.90;;;6.60;99.90;;;7.16;100.00;97241.03;5008896;28;20459;-76
2021/12/24 08:54:12;;;;;;;9.63;5.30;;;6.60;99.90;;;7.15;100.00;97238.66;5006000;28;20833;-77
2021/12/24 08:56:41;;;;;;;14.73;5.77;;;6.60;99.90;;;7.16;100.00;97228.03;5010925;28;20963;-76
2021/12/24 08:59:11;;;;;;;9.93;5.27;;;6.60;99.90;;;7.18;100.00;97244.28;5012593;28;20481;-76
2021/12/24 09:01:42;;;;;;;10.60;6.33;;;6.60;99.90;;;7.20;100.00;97246.69;5044994;28;21059;-76
2021/12/24 09:04:14;;;;;;;12.23;5.60;;;6.60;99.90;;;7.21;100.00;97246.50;5049646;28;20875;-76
2021/12/24 09:06:43;;;;;;;9.03;5.77;;;6.70;99.90;;;7.24;100.00;97233.13;5047433;28;20457;-76
2021/12/24 09:09:12;;;;;;;9.17;5.17;;;6.70;99.90;;;7.26;100.00;97238.13;5048468;28;21037;-76
2021/12/24 09:11:46;;;;;;;7.70;5.73;;;6.70;99.90;;;7.25;100.00;97239.94;5049139;28;20957;-76
2021/12/24 09:14:18;;;;;;;7.87;5.43;;;6.70;99.90;;;7.27;100.00;97248.34;5052689;28;20535;-76
2021/12/24 09:16:50;;;;;;;9.03;6.07;;;6.70;99.90;;;7.29;100.00;97245.59;5052630;28;20980;-76
2021/12/24 09:19:24;;;;;;;9.30;5.70;;;6.70;99.90;;;7.33;100.00;97250.19;5049297;28;20460;-76
2021/12/24 09:21:56;;;;;;;9.93;5.77;;;6.80;99.90;;;7.35;100.00;97256.03;5052844;28;20498;-76
2021/12/24 09:24:26;;;;;;;10.10;5.23;;;6.80;99.90;;;7.37;100.00;97256.66;5053074;28;20460;-76
2021/12/24 09:26:57;;;;;;;10.20;5.60;;;6.90;99.90;;;7.40;100.00;97253.66;5053326;28;20460;-76
2021/12/24 09:29:28;;;;;;;9.50;5.50;;;6.90;99.90;;;7.43;100.00;97242.09;5053048;28;20507;-77
2021/12/24 09:32:03;;;;;;;10.47;5.67;;;6.90;99.90;;;7.45;100.00;97253.13;5045175;28;20481;-76
2021/12/24 09:34:34;;;;;;;7.87;5.60;;;6.90;99.90;;;7.42;100.00;97256.91;5052264;28;20441;-76
2021/12/24 09:37:06;;;;;;;9.50;5.67;;;6.80;99.90;;;7.43;100.00;97253.28;5052061;28;20477;-76
2021/12/24 09:39:37;;;;;;;10.77;5.60;;;6.80;99.90;;;7.44;100.00;97254.91;5052127;28;20449;-76
2021/12/24 09:42:09;;;;;;;9.00;5.03;;;6.90;99.90;;;7.49;100.00;97256.97;5052093;28;20446;-76
2021/12/24 09:44:38;;;;;;;6.17;5.00;;;6.90;99.90;;;7.51;100.00;97263.56;5052571;28;20980;-77
2021/12/24 09:47:08;;;;;;;9.43;5.40;;;7.00;99.90;;;7.51;100.00;97260.16;5058496;28;20863;-76
2021/12/24 09:49:39;;;;;;;10.23;5.73;;;7.00;99.90;;;7.47;100.00;97254.53;5044048;28;20857;-76
2021/12/24 09:52:11;;;;;;;9.83;6.10;;;6.90;99.90;;;7.49;100.00;97255.16;5051622;28;20445;-76
2021/12/24 09:54:45;;;;;;;11.63;5.73;;;6.90;99.90;;;7.49;100.00;97246.56;5050814;28;20472;-77
2021/12/24 09:57:16;;;;;;;12.83;6.70;;;6.90;99.90;;;7.52;100.00;97251.38;5050494;28;20449;-77
2021/12/24 09:59:46;;;;;;;14.60;5.90;;;6.90;99.90;;;7.50;100.00;97253.34;5056336;28;20480;-77
2021/12/24 10:02:18;;;;;;;8.77;5.73;;;6.90;99.90;;;7.51;100.00;97250.56;5051465;28;20446;-76
2021/12/24 10:04:50;;;;;;;10.03;5.50;;;7.00;99.90;;;7.55;100.00;97254.41;5042894;28;20555;-76
2021/12/24 10:07:24;;;;;;;9.93;6.00;;;7.00;99.90;;;7.53;100.00;97253.78;5051417;28;20453;-77
2021/12/24 10:10:07;;;;;;;12.70;5.83;;;6.90;99.90;;;7.56;100.00;97247.41;5056465;28;20496;-77
2021/12/24 10:12:38;;;;;;;12.30;6.37;;;7.00;99.90;;;7.58;100.00;97251.44;5055819;28;20460;-77
2021/12/24 10:15:08;;;;;;;9.83;6.07;;;7.10;99.90;;;7.52;100.00;97252.19;5056108;28;20532;-78
2021/12/24 10:17:38;;;;;;;8.53;5.10;;;6.90;99.90;;;7.52;100.00;97244.38;5041115;28;20495;-77
2021/12/24 10:20:17;;;;;;;9.53;5.93;;;6.90;99.90;;;7.55;100.00;97241.41;5050134;28;20980;-76
2021/12/24 10:22:49;;;;;;;12.23;5.70;;;7.00;99.90;;;7.56;100.00;97232.63;5041974;28;20469;-76
2021/12/24 10:25:30;;;;;;;8.03;5.87;;;7.00;99.90;;;7.58;100.00;97246.22;5047564;28;20789;-77
2021/12/24 10:28:10;;;;;;;8.73;5.87;;;7.00;99.90;;;7.57;100.00;97249.81;5051536;28;20851;-77
2021/12/24 10:30:41;;;;;;;9.20;6.20;;;6.90;99.90;;;7.55;100.00;97233.59;5055737;28;20503;-76
2021/12/24 10:33:13;;;;;;;12.70;6.13;;;6.90;99.90;;;7.55;100.00;97231.00;5050852;28;20451;-77
2021/12/24 10:36:01;;;;;;;10.67;5.90;;;6.90;99.90;;;7.60;100.00;97240.84;5052841;28;20453;-77
2021/12/24 10:38:32;;;;;;;8.40;4.90;;;7.00;99.90;;;7.59;100.00;97242.66;5056753;28;20476;-77
2021/12/24 10:41:07;;;;;;;11.17;6.10;;;7.00;99.90;;;7.61;100.00;97252.84;5048921;28;20532;-77
2021/12/24 10:43:41;;;;;;;9.20;5.67;;;7.00;99.90;;;7.59;100.00;97239.25;5051345;28;20447;-77
2021/12/24 10:46:15;;;;;;;7.50;5.23;;;7.00;99.90;;;7.60;100.00;97230.44;5051809;28;20445;-77
2021/12/24 10:49:13;;;;;;;6.03;5.00;;;6.90;99.90;;;7.60;100.00;97228.63;5052078;28;20441;-76
2021/12/24 10:52:12;;;;;;;8.40;5.03;;;7.00;99.90;;;7.63;100.00;97224.06;5040147;28;20504;-77
2021/12/24 10:54:53;;;;;;;7.87;5.03;;;6.90;99.90;;;7.65;100.00;97219.47;5049866;28;20471;-77
2021/12/24 10:57:27;;;;;;;6.77;4.60;;;7.00;99.90;;;7.66;100.00;97216.69;5038135;28;20446;-76
2021/12/24 11:00:01;;;;;;;5.57;4.20;;;7.10;99.90;;;7.67;100.00;97207.84;5050485;28;22219;-76
2021/12/24 11:02:34;;;;;;;7.10;5.10;;;7.00;99.90;;;7.69;100.00;97207.69;5056593;28;21004;-76
2021/12/24 11:05:14;;;;;;;6.50;5.07;;;7.10;99.90;;;7.71;100.00;97208.28;5037485;28;20500;-77
2021/12/24 11:07:45;;;;;;;9.23;5.20;;;7.10;99.90;;;7.72;100.00;97200.31;5050600;28;20457;-76
2021/12/24 11:10:19;;;;;;;8.90;5.07;;;7.10;99.90;;;7.74;100.00;97202.72;5044942;28;20530;-76
2021/12/24 11:12:54;;;;;;;8.23;5.47;;;7.20;99.90;;;7.73;100.00;97204.53;5050272;28;20453;-76
2021/12/24 11:15:31;;;;;;;6.90;5.07;;;7.20;99.90;;;7.76;100.00;97196.34;5050246;28;20774;-77
2021/12/24 11:18:05;;;;;;;7.23;4.60;;;7.20;99.90;;;7.77;100.00;97186.72;5050517;28;20452;-76
2021/12/24 11:20:36;;;;;;;5.63;4.00;;;7.20;99.90;;;7.78;100.00;97181.31;5050754;28;20453;-77
2021/12/24 11:23:11;;;;;;;5.63;4.77;;;7.20;99.90;;;7.79;100.00;97177.72;5043192;28;20867;-77
2021/12/24 11:25:43;;;;;;;5.87;4.30;;;7.20;99.90;;;7.82;100.00;97181.75;5048630;28;20451;-77
2021/12/24 11:28:16;;;;;;;11.00;4.90;;;7.30;99.90;;;7.83;100.00;97173.75;5046769;28;20499;-76
2021/12/24 11:30:50;;;;;;;6.83;4.70;;;7.30;99.90;;;7.82;100.00;97169.53;5049220;28;20497;-76
2021/12/24 11:33:24;;;;;;;6.37;4.33;;;7.30;99.90;;;7.84;100.00;97172.78;5047103;28;20520;-76
2021/12/24 11:35:54;;;;;;;4.43;3.80;;;7.30;99.90;;;7.85;100.00;97163.13;5050138;28;20870;-76
2021/12/24 11:38:27;;;;;;;8.00;4.67;;;7.30;99.90;;;7.84;100.00;97153.75;5049370;28;20501;-77
2021/12/24 11:41:00;;;;;;;6.07;4.17;;;7.50;99.90;;;7.83;100.00;97158.13;5043389;28;20953;-76
2021/12/24 11:43:32;;;;;;;5.20;4.30;;;7.40;99.90;;;7.85;100.00;97152.72;5044179;28;20454;-76
2021/12/24 11:46:06;;;;;;;7.60;4.50;;;7.30;99.90;;;7.83;100.00;97150.34;5044210;28;20469;-77
2021/12/24 11:48:36;;;;;;;6.37;4.47;;;7.30;99.90;;;7.84;100.00;97135.53;5047904;28;20460;-76
2021/12/24 11:51:10;;;;;;;5.97;3.90;;;7.30;99.90;;;7.86;100.00;97133.53;5042503;28;20501;-76
2021/12/24 11:53:43;;;;;;;6.10;4.23;;;7.30;99.90;;;7.88;100.00;97141.97;5040024;28;20475;-77
2021/12/24 11:56:17;;;;;;;5.43;3.83;;;7.30;99.90;;;7.88;100.00;97134.94;5049958;28;20515;-77
2021/12/24 11:58:49;;;;;;;4.53;3.50;;;7.30;99.90;;;7.89;100.00;97135.75;5047946;28;20457;-76